createdAt,value
2019-03-11T00:00:18.166Z,2.20
2019-03-11T00:02:46.345Z,2.70
2019-03-11T00:05:14.774Z,2.10
2019-03-11T00:07:43.258Z,2.10
2019-03-11T00:10:11.449Z,2.57
2019-03-11T00:12:39.608Z,2.07
2019-03-11T00:15:09.040Z,2.37
2019-03-11T00:17:37.206Z,2.40
2019-03-11T00:20:08.426Z,2.67
2019-03-11T00:22:36.589Z,2.13
2019-03-11T00:25:06.806Z,2.03
2019-03-11T00:27:35.146Z,1.43
2019-03-11T00:30:05.294Z,2.70
2019-03-11T00:32:34.942Z,2.93
2019-03-11T00:35:05.405Z,2.70
2019-03-11T00:37:33.663Z,2.63
2019-03-11T00:40:01.921Z,2.63
2019-03-11T00:42:30.167Z,2.30
2019-03-11T00:44:58.378Z,2.00
2019-03-11T00:47:31.247Z,2.03
2019-03-11T00:50:01.184Z,3.00
2019-03-11T00:52:31.080Z,2.23
2019-03-11T00:54:56.651Z,2.60
2019-03-11T00:57:25.272Z,2.70
2019-03-11T01:00:06.916Z,2.00
2019-03-11T01:05:49.657Z,1.57
2019-03-11T01:07:59.289Z,2.10
2019-03-11T01:10:27.080Z,1.90
2019-03-11T01:13:00.764Z,1.80
2019-03-11T01:15:30.545Z,2.10
2019-03-11T01:18:00.318Z,1.83
2019-03-11T01:20:32.198Z,1.67
2019-03-11T01:26:06.075Z,2.30
2019-03-11T01:31:41.733Z,1.90
2019-03-11T01:37:02.318Z,2.20
2019-03-11T01:47:21.733Z,2.40
2019-03-11T01:49:49.922Z,2.60
2019-03-11T01:52:18.446Z,2.60
2019-03-11T01:54:46.631Z,2.23
2019-03-11T01:57:15.095Z,2.13
2019-03-11T01:59:43.321Z,2.80
2019-03-11T02:02:11.573Z,2.80
2019-03-11T02:04:39.772Z,2.67
2019-03-11T02:07:07.942Z,2.43
2019-03-11T02:09:36.131Z,2.57
2019-03-11T02:12:04.477Z,2.37
2019-03-11T02:14:32.662Z,2.10
2019-03-11T02:17:01.191Z,2.50
2019-03-11T02:19:29.381Z,2.40
2019-03-11T02:21:57.566Z,2.40
2019-03-11T02:24:25.766Z,2.37
2019-03-11T02:26:54.294Z,1.63
2019-03-11T02:29:22.471Z,2.13
2019-03-11T02:31:50.950Z,2.03
2019-03-11T02:34:19.134Z,1.40
2019-03-11T02:36:47.350Z,1.47
2019-03-11T02:39:15.599Z,1.40
2019-03-11T02:41:43.759Z,1.60
2019-03-11T02:44:11.950Z,1.53
2019-03-11T02:46:40.125Z,1.10
2019-03-11T02:49:08.310Z,1.60
2019-03-11T02:51:36.853Z,1.57
2019-03-11T02:54:05.026Z,1.70
2019-03-11T02:56:33.189Z,1.43
2019-03-11T02:59:01.374Z,1.50
2019-03-11T03:01:31.195Z,1.57
2019-03-11T03:04:01.027Z,1.63
2019-03-11T03:06:29.221Z,1.27
2019-03-11T03:08:57.404Z,1.60
2019-03-11T03:11:25.579Z,1.87
2019-03-11T03:13:54.082Z,1.77
2019-03-11T03:16:22.306Z,2.10
2019-03-11T03:18:50.745Z,1.83
2019-03-11T03:21:18.907Z,1.60
2019-03-11T03:23:47.108Z,2.37
2019-03-11T03:26:15.304Z,2.00
2019-03-11T03:28:43.489Z,1.73
2019-03-11T03:31:11.668Z,1.80
2019-03-11T03:33:39.946Z,2.47
2019-03-11T03:36:08.254Z,2.23
2019-03-11T03:38:36.438Z,2.20
2019-03-11T03:41:04.929Z,2.20
2019-03-11T03:43:33.174Z,1.90
2019-03-11T03:46:01.326Z,2.13
2019-03-11T03:48:29.894Z,2.40
2019-03-11T03:50:58.097Z,2.20
2019-03-11T03:53:26.260Z,2.27
2019-03-11T03:55:54.759Z,2.60
2019-03-11T03:58:22.927Z,2.10
2019-03-11T04:00:51.090Z,2.40
2019-03-11T04:03:19.306Z,2.40
2019-03-11T04:05:47.470Z,2.13
2019-03-11T04:08:15.650Z,2.37
2019-03-11T04:10:43.839Z,2.07
2019-03-11T04:13:12.019Z,1.80
2019-03-11T04:15:40.203Z,1.97
2019-03-11T04:18:09.939Z,1.90
2019-03-11T04:20:38.100Z,1.83
2019-03-11T04:23:06.299Z,1.87
2019-03-11T04:25:34.897Z,1.70
2019-03-11T04:28:04.082Z,2.17
2019-03-11T04:30:32.338Z,2.00
2019-03-11T04:33:00.841Z,1.87
2019-03-11T04:35:29.011Z,2.30
2019-03-11T04:37:57.706Z,1.87
2019-03-11T04:40:25.873Z,1.30
2019-03-11T04:42:54.034Z,1.57
2019-03-11T04:45:22.227Z,1.80
2019-03-11T04:47:50.392Z,1.80
2019-03-11T04:50:19.732Z,1.93
2019-03-11T04:52:47.882Z,1.80
2019-03-11T04:55:16.805Z,1.90
2019-03-11T04:57:52.547Z,2.17
2019-03-11T05:00:31.164Z,2.00
2019-03-11T05:02:59.507Z,1.63
2019-03-11T05:05:27.677Z,0.90
2019-03-11T05:07:55.869Z,0.93
2019-03-11T05:10:24.079Z,1.00
2019-03-11T05:12:52.273Z,1.20
2019-03-11T05:15:20.440Z,0.73
2019-03-11T05:17:48.978Z,0.57
2019-03-11T05:20:18.013Z,0.70
2019-03-11T05:22:46.197Z,0.80
2019-03-11T05:25:15.122Z,0.53
2019-03-11T05:27:43.682Z,0.90
2019-03-11T05:30:19.877Z,0.80
2019-03-11T05:32:48.213Z,0.97
2019-03-11T05:35:16.715Z,0.90
2019-03-11T05:37:44.987Z,1.00
2019-03-11T05:40:17.121Z,1.20
2019-03-11T05:42:45.314Z,0.87
2019-03-11T05:45:15.607Z,1.40
2019-03-11T05:47:43.873Z,1.40
2019-03-11T05:50:14.758Z,1.17
2019-03-11T05:52:43.549Z,1.60
2019-03-11T05:55:12.801Z,1.53
2019-03-11T05:57:41.141Z,1.33
2019-03-11T06:00:12.620Z,1.43
2019-03-11T06:02:40.778Z,1.20
2019-03-11T06:05:09.100Z,0.80
2019-03-11T06:07:37.257Z,1.33
2019-03-11T06:10:08.585Z,1.20
2019-03-11T06:12:36.797Z,0.83
2019-03-11T06:15:08.157Z,0.93
2019-03-11T06:17:36.353Z,0.90
2019-03-11T06:20:11.301Z,1.13
2019-03-11T06:22:39.480Z,1.03
2019-03-11T06:25:07.652Z,1.50
2019-03-11T06:27:36.203Z,1.70
2019-03-11T06:30:08.194Z,1.80
2019-03-11T06:32:37.051Z,2.50
2019-03-11T06:35:05.707Z,2.37
2019-03-11T06:37:33.879Z,2.67
2019-03-11T06:40:02.388Z,2.43
2019-03-11T06:42:30.583Z,2.10
2019-03-11T06:44:58.758Z,2.20
2019-03-11T06:47:26.952Z,2.07
2019-03-11T06:49:55.151Z,2.50
2019-03-11T06:52:23.344Z,2.00
2019-03-11T06:54:51.515Z,2.20
2019-03-11T06:57:19.724Z,2.30
2019-03-11T06:59:47.885Z,1.87
2019-03-11T07:02:16.457Z,1.73
2019-03-11T07:04:44.627Z,2.00
2019-03-11T07:07:12.819Z,1.67
2019-03-11T07:09:40.991Z,1.73
2019-03-11T07:12:09.194Z,2.00
2019-03-11T07:14:37.389Z,1.70
2019-03-11T07:17:05.892Z,2.03
2019-03-11T07:19:34.077Z,2.03
2019-03-11T07:22:02.278Z,2.57
2019-03-11T07:24:30.439Z,3.03
2019-03-11T07:26:58.633Z,3.20
2019-03-11T07:29:26.803Z,2.57
2019-03-11T07:31:55.238Z,3.23
2019-03-11T07:34:23.408Z,3.40
2019-03-11T07:36:51.994Z,2.60
2019-03-11T07:39:20.472Z,2.70
2019-03-11T07:41:48.658Z,3.07
2019-03-11T07:44:16.841Z,3.47
2019-03-11T07:46:45.689Z,2.90
2019-03-11T07:49:14.397Z,2.63
2019-03-11T07:51:42.588Z,2.97
2019-03-11T07:54:10.749Z,2.50
2019-03-11T07:56:38.940Z,2.57
2019-03-11T07:59:07.106Z,2.20
2019-03-11T08:01:35.287Z,2.43
2019-03-11T08:04:03.457Z,2.37
2019-03-11T08:06:31.621Z,2.30
2019-03-11T08:09:00.652Z,2.57
2019-03-11T08:11:28.819Z,2.50
2019-03-11T08:13:57.011Z,2.63
2019-03-11T08:16:25.164Z,2.57
2019-03-11T08:18:53.364Z,2.33
2019-03-11T08:21:21.550Z,2.73
2019-03-11T08:23:49.733Z,2.50
2019-03-11T08:26:18.219Z,2.33
2019-03-11T08:28:46.394Z,2.80
2019-03-11T08:31:14.586Z,3.13
2019-03-11T08:33:42.756Z,2.77
2019-03-11T08:36:10.956Z,2.70
2019-03-11T08:38:39.126Z,2.60
2019-03-11T08:41:07.315Z,2.53
2019-03-11T08:43:35.499Z,2.97
2019-03-11T08:46:03.699Z,2.50
2019-03-11T08:48:32.386Z,2.77
2019-03-11T08:51:00.557Z,3.00
2019-03-11T08:53:28.758Z,3.10
2019-03-11T08:55:56.942Z,2.60
2019-03-11T08:58:25.106Z,2.73
2019-03-11T09:00:53.293Z,2.30
2019-03-11T09:03:21.939Z,2.77
2019-03-11T09:05:50.109Z,2.90
2019-03-11T09:08:18.305Z,2.87
2019-03-11T09:10:46.874Z,2.60
2019-03-11T09:13:15.055Z,2.43
2019-03-11T09:15:45.509Z,2.30
2019-03-11T09:18:13.444Z,2.47
2019-03-11T09:20:44.078Z,2.40
2019-03-11T09:23:12.266Z,2.37
2019-03-11T09:25:40.446Z,2.80
2019-03-11T09:28:08.646Z,2.43
2019-03-11T09:30:38.625Z,3.00
2019-03-11T09:33:08.386Z,2.40
2019-03-11T09:35:36.842Z,2.30
2019-03-11T09:38:06.569Z,2.53
2019-03-11T09:40:35.078Z,2.20
2019-03-11T09:43:03.561Z,2.57
2019-03-11T09:45:32.038Z,2.40
2019-03-11T09:48:00.213Z,2.20
2019-03-11T09:50:28.423Z,2.27
2019-03-11T09:52:56.590Z,2.23
2019-03-11T09:55:27.079Z,2.33
2019-03-11T09:57:55.286Z,2.30
2019-03-11T10:00:24.294Z,2.33
2019-03-11T10:02:53.493Z,2.33
2019-03-11T10:05:22.032Z,2.50
2019-03-11T10:07:50.400Z,2.80
2019-03-11T10:10:20.018Z,2.67
2019-03-11T10:12:48.204Z,2.70
2019-03-11T10:15:18.106Z,2.70
2019-03-11T10:17:46.678Z,3.00
2019-03-11T10:20:19.045Z,3.43
2019-03-11T10:22:47.575Z,3.07
2019-03-11T10:25:17.031Z,2.90
2019-03-11T10:27:45.333Z,3.03
2019-03-11T10:30:21.092Z,2.83
2019-03-11T10:32:49.325Z,3.00
2019-03-11T10:35:31.352Z,3.27
2019-03-11T10:37:50.042Z,3.00
2019-03-11T10:40:20.808Z,2.63
2019-03-11T10:42:49.004Z,2.83
2019-03-11T10:45:17.508Z,2.60
2019-03-11T10:47:45.765Z,3.40
2019-03-11T10:50:18.559Z,2.93
2019-03-11T10:52:46.838Z,2.70
2019-03-11T10:55:16.363Z,2.80
2019-03-11T10:57:44.660Z,2.60
2019-03-11T11:00:26.046Z,2.17
2019-03-11T11:02:54.573Z,2.43
2019-03-11T11:05:22.737Z,2.67
2019-03-11T11:07:50.998Z,2.40
2019-03-11T11:10:19.524Z,2.97
2019-03-11T11:12:47.882Z,2.60
2019-03-11T11:15:20.778Z,2.77
2019-03-11T11:17:48.962Z,2.60
2019-03-11T11:20:19.065Z,2.70
2019-03-11T11:22:47.514Z,2.60
2019-03-11T11:25:20.426Z,2.87
2019-03-11T11:27:48.793Z,2.50
2019-03-11T11:30:24.420Z,2.57
2019-03-11T11:32:52.949Z,2.63
2019-03-11T11:35:21.384Z,2.60
2019-03-11T11:37:49.644Z,2.17
2019-03-11T11:40:24.835Z,3.07
2019-03-11T11:42:53.076Z,1.83
2019-03-11T11:45:30.075Z,2.00
2019-03-11T11:47:58.269Z,2.03
2019-03-11T11:50:26.694Z,2.10
2019-03-11T11:52:55.163Z,1.70
2019-03-11T11:55:23.866Z,2.50
2019-03-11T11:57:52.125Z,2.23
2019-03-11T12:00:34.921Z,2.43
2019-03-11T12:03:03.111Z,2.03
2019-03-11T12:05:31.378Z,1.90
2019-03-11T12:07:59.912Z,2.23
2019-03-11T12:10:33.387Z,2.70
2019-03-11T12:13:01.581Z,2.60
2019-03-11T12:15:29.818Z,2.93
2019-03-11T12:17:58.015Z,3.00
2019-03-11T12:20:30.208Z,2.53
2019-03-11T12:22:58.397Z,2.90
2019-03-11T12:25:26.639Z,2.50
2019-03-11T12:27:54.996Z,2.37
2019-03-11T12:30:28.048Z,2.50
2019-03-11T12:32:56.356Z,2.43
2019-03-11T12:35:24.613Z,2.10
2019-03-11T12:37:54.805Z,2.27
2019-03-11T12:40:23.567Z,1.70
2019-03-11T12:42:52.075Z,2.10
2019-03-11T12:45:22.834Z,2.97
2019-03-11T12:47:51.165Z,2.40
2019-03-11T12:50:22.439Z,2.90
2019-03-11T12:52:50.703Z,2.80
2019-03-11T12:55:21.180Z,2.00
2019-03-11T12:57:48.787Z,2.83
2019-03-11T13:00:19.501Z,2.57
2019-03-11T13:02:48.158Z,2.20
2019-03-11T13:05:17.455Z,2.07
2019-03-11T13:07:45.697Z,1.80
2019-03-11T13:10:20.254Z,1.93
2019-03-11T13:12:48.937Z,2.00
2019-03-11T13:15:17.445Z,1.43
2019-03-11T13:17:46.008Z,1.80
2019-03-11T13:20:37.804Z,2.03
2019-03-11T13:23:05.994Z,1.93
2019-03-11T13:25:34.188Z,3.20
2019-03-11T13:28:02.365Z,2.50
2019-03-11T13:30:30.545Z,3.03
2019-03-11T13:32:58.717Z,2.00
2019-03-11T13:35:26.897Z,2.60
2019-03-11T13:37:55.553Z,2.37
2019-03-11T13:40:23.729Z,2.37
2019-03-11T13:42:51.900Z,2.37
2019-03-11T13:45:20.481Z,1.77
2019-03-11T13:47:48.842Z,2.73
2019-03-11T13:50:18.843Z,2.00
2019-03-11T13:52:47.272Z,1.90
2019-03-11T13:55:16.682Z,1.83
2019-03-11T13:57:44.872Z,1.80
2019-03-11T14:00:18.257Z,1.70
2019-03-11T14:02:46.707Z,2.10
2019-03-11T14:05:14.912Z,1.93
2019-03-11T14:07:43.388Z,1.90
2019-03-11T14:10:12.474Z,1.97
2019-03-11T14:12:40.670Z,2.30
2019-03-11T14:15:22.678Z,1.67
2019-03-11T14:17:50.857Z,1.67
2019-03-11T14:20:19.098Z,1.40
2019-03-11T14:22:47.291Z,2.03
2019-03-11T14:25:15.775Z,1.53
2019-03-11T14:27:44.014Z,1.37
2019-03-11T14:30:19.618Z,1.53
2019-03-11T14:32:47.840Z,1.83
2019-03-11T14:35:16.018Z,1.63
2019-03-11T14:37:44.207Z,1.60
2019-03-11T14:40:14.498Z,1.80
2019-03-11T14:42:42.975Z,2.13
2019-03-11T14:45:15.963Z,1.70
2019-03-11T14:47:44.137Z,1.70
2019-03-11T14:50:14.055Z,1.83
2019-03-11T14:52:42.233Z,1.30
2019-03-11T14:55:11.639Z,2.00
2019-03-11T14:57:39.813Z,1.83
2019-03-11T15:00:11.573Z,2.00
2019-03-11T15:02:39.738Z,1.70
2019-03-11T15:05:08.557Z,2.00
2019-03-11T15:07:37.014Z,1.73
2019-03-11T15:10:07.920Z,1.83
2019-03-11T15:12:36.086Z,2.27
2019-03-11T15:15:07.376Z,1.40
2019-03-11T15:17:35.805Z,1.70
2019-03-11T15:20:05.935Z,2.03
2019-03-11T15:22:34.112Z,2.03
2019-03-11T15:25:02.301Z,1.80
2019-03-11T15:27:30.463Z,2.07
2019-03-11T15:29:58.632Z,1.60
2019-03-11T15:32:27.418Z,1.67
2019-03-11T15:34:55.591Z,1.83
2019-03-11T15:37:23.764Z,1.53
2019-03-11T15:39:51.925Z,1.80
2019-03-11T15:42:20.414Z,1.00
2019-03-11T15:44:48.577Z,1.43
2019-03-11T15:47:16.754Z,1.57
2019-03-11T15:49:44.918Z,1.50
2019-03-11T15:52:13.101Z,1.63
2019-03-11T15:54:41.402Z,1.70
2019-03-11T15:57:09.713Z,1.67
2019-03-11T15:59:37.879Z,1.60
2019-03-11T16:02:06.767Z,1.37
2019-03-11T16:04:34.994Z,1.70
2019-03-11T16:07:03.177Z,1.60
2019-03-11T16:09:31.407Z,1.87
2019-03-11T16:11:59.935Z,1.60
2019-03-11T16:14:28.118Z,1.53
2019-03-11T16:16:56.547Z,1.80
2019-03-11T16:19:24.777Z,1.70
2019-03-11T16:21:53.049Z,1.40
2019-03-11T16:24:21.281Z,1.80
2019-03-11T16:26:49.473Z,1.37
2019-03-11T16:29:17.749Z,1.60
2019-03-11T16:31:45.911Z,1.17
2019-03-11T16:34:14.103Z,1.60
2019-03-11T16:36:42.286Z,1.40
2019-03-11T16:39:10.558Z,1.10
2019-03-11T16:41:38.746Z,1.80
2019-03-11T16:44:06.909Z,2.00
2019-03-11T16:46:35.073Z,1.77
2019-03-11T16:49:03.537Z,2.00
2019-03-11T16:51:32.251Z,1.50
2019-03-11T16:54:00.929Z,1.63
2019-03-11T16:56:29.398Z,1.63
2019-03-11T16:58:57.635Z,1.67
2019-03-11T17:01:25.903Z,1.10
2019-03-11T17:03:58.430Z,2.17
2019-03-11T17:06:24.095Z,1.87
2019-03-11T17:08:52.628Z,1.87
2019-03-11T17:11:21.205Z,1.47
2019-03-11T17:13:49.427Z,1.80
2019-03-11T17:16:42.147Z,1.33
2019-03-11T17:20:17.231Z,1.50
2019-03-11T17:22:05.581Z,1.73
2019-03-11T17:24:10.144Z,1.40
2019-03-11T17:26:41.929Z,1.50
2019-03-11T17:29:09.109Z,1.63
2019-03-11T17:31:37.274Z,1.70
2019-03-11T17:34:07.349Z,1.97
2019-03-11T17:36:35.550Z,1.30
2019-03-11T17:39:04.503Z,1.60
2019-03-11T17:41:32.756Z,1.93
2019-03-11T17:44:01.449Z,1.80
2019-03-11T17:46:29.707Z,1.83
2019-03-11T17:48:57.926Z,1.30
2019-03-11T17:51:26.147Z,1.60
2019-03-11T17:53:54.656Z,1.70
2019-03-11T17:56:22.869Z,1.53
2019-03-11T17:58:51.040Z,1.80
2019-03-11T18:01:19.234Z,1.67
2019-03-11T18:03:47.411Z,1.80
2019-03-11T18:06:15.619Z,1.73
2019-03-11T18:08:43.853Z,1.60
2019-03-11T18:11:12.038Z,1.50
2019-03-11T18:13:40.206Z,1.47
2019-03-11T18:16:08.396Z,1.73
2019-03-11T18:18:36.558Z,1.67
2019-03-11T18:21:06.781Z,1.57
2019-03-11T18:23:34.711Z,1.50
2019-03-11T18:26:02.883Z,1.80
2019-03-11T18:28:31.094Z,1.80
2019-03-11T18:30:59.368Z,1.57
2019-03-11T18:33:27.583Z,1.90
2019-03-11T18:35:55.724Z,1.80
2019-03-11T18:38:23.890Z,2.40
2019-03-11T18:40:54.279Z,2.17
2019-03-11T18:43:22.062Z,2.20
2019-03-11T18:45:50.308Z,2.07
2019-03-11T18:48:18.496Z,2.20
2019-03-11T18:50:46.683Z,1.27
2019-03-11T18:53:14.873Z,2.10
2019-03-11T18:55:43.035Z,1.60
2019-03-11T18:58:11.194Z,1.87
2019-03-11T19:00:39.755Z,1.67
2019-03-11T19:03:08.052Z,1.80
2019-03-11T19:05:36.234Z,1.80
2019-03-11T19:08:04.664Z,1.97
2019-03-11T19:10:32.848Z,1.83
2019-03-11T19:13:01.055Z,1.90
2019-03-11T19:15:29.338Z,2.07
2019-03-11T19:17:57.540Z,2.67
2019-03-11T19:20:26.428Z,2.00
2019-03-11T19:22:55.018Z,2.30
2019-03-11T19:25:23.845Z,2.03
2019-03-11T19:27:52.818Z,2.27
2019-03-11T19:30:26.219Z,2.40
2019-03-11T19:32:54.594Z,2.33
2019-03-11T19:35:24.567Z,2.50
2019-03-11T19:37:54.426Z,1.90
2019-03-11T19:40:25.176Z,2.40
2019-03-11T19:42:53.539Z,1.93
2019-03-11T19:45:21.908Z,2.50
2019-03-11T19:47:51.081Z,2.10
2019-03-11T19:50:20.259Z,2.30
2019-03-11T19:52:58.451Z,2.90
2019-03-11T19:55:18.895Z,2.17
2019-03-11T19:57:47.609Z,2.40
2019-03-11T20:00:23.564Z,2.27
2019-03-11T20:02:53.047Z,2.20
2019-03-11T20:05:28.921Z,2.20
2019-03-11T20:07:57.315Z,2.43
2019-03-11T20:10:25.876Z,2.17
2019-03-11T20:12:54.360Z,2.60
2019-03-11T20:15:22.900Z,2.10
2019-03-11T20:17:51.310Z,2.40
2019-03-11T20:20:20.599Z,2.07
2019-03-11T20:22:50.456Z,2.40
2019-03-11T20:25:21.789Z,2.57
2019-03-11T20:27:50.687Z,2.13
2019-03-11T20:30:21.306Z,1.97
2019-03-11T20:32:49.959Z,2.30
2019-03-11T20:35:18.284Z,2.20
2019-03-11T20:37:47.033Z,2.13
2019-03-11T20:40:15.584Z,2.20
2019-03-11T20:42:43.954Z,2.70
2019-03-11T20:45:18.412Z,2.53
2019-03-11T20:47:47.513Z,2.57
2019-03-11T20:50:17.029Z,2.43
2019-03-11T20:52:46.039Z,2.87
2019-03-11T20:55:16.091Z,2.60
2019-03-11T20:57:44.442Z,2.83
2019-03-11T21:00:15.295Z,2.10
2019-03-11T21:02:43.967Z,2.60
2019-03-11T21:05:14.816Z,2.80
2019-03-11T21:07:43.449Z,2.27
2019-03-11T21:10:14.415Z,2.10
2019-03-11T21:12:42.828Z,2.83
2019-03-11T21:15:13.693Z,2.63
2019-03-11T21:17:42.103Z,2.60
2019-03-11T21:20:18.091Z,2.20
2019-03-11T21:22:46.515Z,2.40
2019-03-11T21:25:16.715Z,2.80
2019-03-11T21:27:45.013Z,2.10
2019-03-11T21:30:19.080Z,2.60
2019-03-11T21:32:47.669Z,2.80
2019-03-11T21:35:16.257Z,2.63
2019-03-11T21:37:44.642Z,2.47
2019-03-11T21:40:23.387Z,3.13
2019-03-11T21:42:51.982Z,2.90
2019-03-11T21:45:33.042Z,2.70
2019-03-11T21:47:51.134Z,2.43
2019-03-11T21:50:21.509Z,2.10
2019-03-11T21:52:49.839Z,2.80
2019-03-11T21:55:18.018Z,2.20
2019-03-11T21:57:46.272Z,2.27
2019-03-11T22:00:28.487Z,2.17
2019-03-11T22:02:47.904Z,2.37
2019-03-11T22:05:16.093Z,2.33
2019-03-11T22:07:44.610Z,2.27
2019-03-11T22:10:17.305Z,2.83
2019-03-11T22:12:45.561Z,2.63
2019-03-11T22:15:21.146Z,3.07
2019-03-11T22:17:49.338Z,2.57
2019-03-11T22:20:17.871Z,2.43
2019-03-11T22:22:46.234Z,2.80
2019-03-11T22:25:16.640Z,2.43
2019-03-11T22:27:44.974Z,3.00
2019-03-11T22:30:21.040Z,2.50
2019-03-11T22:32:49.349Z,2.97
2019-03-11T22:35:17.530Z,3.07
2019-03-11T22:37:45.994Z,2.73
2019-03-11T22:40:15.990Z,3.00
2019-03-11T22:42:44.178Z,2.60
2019-03-11T22:45:16.847Z,3.17
2019-03-11T22:47:44.682Z,2.40
2019-03-11T22:50:13.394Z,2.73
2019-03-11T22:52:41.579Z,2.60
2019-03-11T22:55:11.153Z,2.80
2019-03-11T22:57:39.313Z,2.30
2019-03-11T23:00:29.312Z,2.50
2019-03-11T23:02:57.469Z,2.83
2019-03-11T23:05:25.649Z,3.10
2019-03-11T23:07:53.978Z,2.63
2019-03-11T23:10:22.175Z,2.90
2019-03-11T23:12:50.348Z,3.30
2019-03-11T23:15:18.536Z,2.80
2019-03-11T23:17:46.730Z,2.33
2019-03-11T23:20:14.969Z,2.67
2019-03-11T23:22:43.464Z,3.03
2019-03-11T23:25:11.643Z,2.40
2019-03-11T23:27:39.805Z,2.60
2019-03-11T23:30:14.038Z,3.00
2019-03-11T23:32:42.221Z,2.60
2019-03-11T23:35:10.726Z,2.70
2019-03-11T23:37:38.889Z,2.87
2019-03-11T23:40:09.021Z,2.83
2019-03-11T23:42:37.262Z,3.00
2019-03-11T23:45:07.405Z,3.10
2019-03-11T23:47:37.091Z,3.37
2019-03-11T23:50:10.202Z,3.17
2019-03-11T23:52:38.365Z,3.30
2019-03-11T23:55:08.397Z,3.77
2019-03-11T23:57:36.926Z,3.67
